Time;durP1;ratioP1;P1;durP2;ratioP2;P2;SDS_P1;SDS_P2;PMS_P1;PMS_P2;Temp;Humidity;BMP_temperature;BMP_pressure;BME280_temperature;BME280_humidity;BME280_pressure;Samples;Min_cycle;Max_cycle;Signal;HPM_P1;HPM_P2
2024/04/15 00:01:19;;;;;;;18.73;2.70;;;13.30;98.30;;;;;;5427503;26;20260;-85
2024/04/15 00:03:44;;;;;;;21.10;3.20;;;13.20;97.70;;;;;;5427994;26;20678;-85
2024/04/15 00:06:10;;;;;;;17.33;2.83;;;13.20;99.90;;;;;;5459547;26;20252;-85
2024/04/15 00:08:36;;;;;;;16.27;2.80;;;13.20;99.90;;;;;;5427400;26;20217;-85
2024/04/15 00:11:03;;;;;;;18.60;2.90;;;13.10;99.90;;;;;;5458382;26;20221;-85
2024/04/15 00:13:28;;;;;;;19.70;2.63;;;13.00;99.90;;;;;;5457783;26;20318;-85
2024/04/15 00:15:55;;;;;;;16.07;3.57;;;13.00;99.90;;;;;;5426598;26;20442;-85
2024/04/15 00:18:21;;;;;;;19.20;2.93;;;12.90;99.90;;;;;;5428336;26;20317;-85
2024/04/15 00:20:47;;;;;;;16.20;2.80;;;12.90;99.90;;;;;;5459305;26;20454;-85
2024/04/15 00:23:12;;;;;;;15.47;2.60;;;12.80;99.90;;;;;;5604873;21;20583;-85
2024/04/15 00:25:38;;;;;;;17.97;3.13;;;12.70;99.90;;;;;;5439885;21;20719;-85
2024/04/15 00:28:04;;;;;;;16.03;3.10;;;12.60;99.90;;;;;;5412918;26;20535;-85
2024/04/15 00:30:32;;;;;;;16.50;3.50;;;12.50;99.90;;;;;;5448922;26;20252;-85
2024/04/15 00:32:58;;;;;;;16.10;2.57;;;12.50;99.90;;;;;;5413113;26;20206;-85
2024/04/15 00:35:23;;;;;;;17.10;2.97;;;12.60;99.90;;;;;;5412773;26;20477;-85
2024/04/15 00:37:49;;;;;;;17.23;3.00;;;12.60;99.90;;;;;;5449277;26;20225;-85
2024/04/15 00:40:15;;;;;;;18.63;3.50;;;12.70;99.90;;;;;;5412972;26;20245;-85
2024/04/15 00:42:41;;;;;;;20.17;3.70;;;12.70;99.90;;;;;;5449130;26;20436;-85
2024/04/15 00:45:29;;;;;;;16.90;2.80;;;12.70;99.90;;;;;;5412952;26;20291;-85
2024/04/15 00:47:55;;;;;;;20.13;3.60;;;12.60;99.90;;;;;;5411318;26;20210;-84
2024/04/15 00:50:23;;;;;;;15.80;3.13;;;12.70;99.90;;;;;;5447809;26;20508;-85
2024/04/15 00:52:48;;;;;;;17.80;3.30;;;12.60;99.90;;;;;;5447599;26;20440;-85
2024/04/15 00:55:14;;;;;;;22.30;3.60;;;12.60;99.90;;;;;;5411404;26;20554;-85
2024/04/15 00:57:43;;;;;;;19.53;3.33;;;12.60;99.90;;;;;;5411566;26;20257;-85
2024/04/15 01:00:11;;;;;;;16.47;3.13;;;12.60;99.90;;;;;;5410736;26;20226;-85
2024/04/15 01:02:38;;;;;;;18.60;3.30;;;12.60;99.90;;;;;;5447799;26;20960;-85
2024/04/15 01:05:07;;;;;;;15.30;2.73;;;12.70;99.90;;;;;;5447770;26;20449;-84
2024/04/15 01:07:35;;;;;;;18.30;4.70;;;12.80;99.90;;;;;;5448217;26;20461;-84
2024/04/15 01:10:01;;;;;;;15.77;3.20;;;12.60;99.90;;;;;;5411054;26;20456;-85
2024/04/15 01:12:27;;;;;;;21.93;2.97;;;12.60;99.90;;;;;;5446967;26;20918;-85
2024/04/15 01:14:52;;;;;;;15.57;3.40;;;12.60;99.90;;;;;;5417721;26;20215;-85
2024/04/15 01:17:18;;;;;;;27.23;3.43;;;12.60;99.90;;;;;;5447179;26;20218;-85
2024/04/15 01:19:43;;;;;;;18.33;3.63;;;12.50;99.90;;;;;;5410797;26;20246;-85
2024/04/15 01:22:16;;;;;;;16.10;3.40;;;12.50;99.90;;;;;;5410234;26;20250;-85
2024/04/15 01:24:43;;;;;;;16.63;3.97;;;12.60;99.90;;;;;;5449939;26;20214;-85
2024/04/15 01:27:08;;;;;;;16.23;3.47;;;12.40;99.90;;;;;;5413695;26;20496;-85
2024/04/15 01:29:34;;;;;;;19.80;3.10;;;12.30;99.90;;;;;;5414294;26;20491;-82
2024/04/15 01:32:00;;;;;;;17.97;4.10;;;12.40;99.90;;;;;;5414643;26;20265;-82
2024/04/15 01:34:25;;;;;;;17.43;4.13;;;12.40;99.90;;;;;;5414623;26;20207;-83
2024/04/15 01:36:51;;;;;;;16.90;3.97;;;12.40;99.90;;;;;;5417906;26;20252;-83
2024/04/15 01:39:17;;;;;;;17.20;3.50;;;12.40;99.90;;;;;;5418578;26;20211;-83
2024/04/15 01:41:43;;;;;;;16.57;3.80;;;12.40;99.90;;;;;;5417640;26;21049;-83
2024/04/15 01:44:08;;;;;;;18.70;5.10;;;12.40;99.90;;;;;;5454256;26;20215;-85
2024/04/15 01:46:34;;;;;;;16.30;3.30;;;12.40;99.90;;;;;;5415888;26;20742;-85
2024/04/15 01:48:59;;;;;;;20.17;3.63;;;12.30;99.90;;;;;;5415531;26;20256;-85
2024/04/15 01:51:25;;;;;;;16.87;4.73;;;12.20;99.90;;;;;;5416033;26;20249;-85
2024/04/15 01:53:51;;;;;;;20.40;5.10;;;12.20;99.90;;;;;;5543750;21;20250;-85
2024/04/15 01:58:47;;;;;;;19.90;5.67;;;12.00;99.90;;;;;;5352510;26;20269;-85
2024/04/15 02:01:12;;;;;;;22.07;6.00;;;12.00;99.90;;;;;;5354331;26;20450;-85
2024/04/15 02:03:40;;;;;;;20.43;5.63;;;11.80;99.90;;;;;;5353912;26;20205;-85
2024/04/15 02:06:06;;;;;;;21.70;5.90;;;11.80;99.90;;;;;;5354511;26;20744;-85
2024/04/15 02:08:32;;;;;;;22.03;5.40;;;11.70;99.90;;;;;;5357002;26;20431;-83
2024/04/15 02:10:57;;;;;;;20.30;5.83;;;11.70;99.90;;;;;;5356835;26;20735;-83
2024/04/15 02:13:23;;;;;;;21.40;6.07;;;11.70;99.90;;;;;;5356793;26;20257;-83
2024/04/15 02:15:48;;;;;;;23.17;6.87;;;11.70;99.90;;;;;;5357389;26;20204;-83
2024/04/15 02:18:14;;;;;;;20.30;5.53;;;11.70;99.90;;;;;;5356398;26;20209;-83
2024/04/15 02:20:41;;;;;;;23.70;6.23;;;11.70;99.90;;;;;;5357158;26;20221;-83
2024/04/15 02:23:06;;;;;;;23.20;5.50;;;11.60;99.90;;;;;;5356332;26;20251;-85
2024/04/15 02:25:32;;;;;;;22.40;6.00;;;11.50;99.90;;;;;;5353077;26;20431;-85
2024/04/15 02:27:58;;;;;;;18.67;5.73;;;11.50;99.90;;;;;;5353109;26;20208;-85
2024/04/15 02:30:23;;;;;;;26.10;5.30;;;11.50;99.90;;;;;;5350639;26;20221;-85
2024/04/15 02:32:49;;;;;;;19.30;5.07;;;11.50;99.90;;;;;;5352676;26;20678;-85
2024/04/15 02:35:15;;;;;;;19.73;5.77;;;11.50;99.90;;;;;;5351976;26;20256;-85
2024/04/15 02:37:40;;;;;;;17.43;4.80;;;11.60;99.90;;;;;;5353170;26;20212;-85
2024/04/15 02:40:07;;;;;;;19.23;5.83;;;11.70;99.90;;;;;;5352585;26;20314;-85
2024/04/15 02:42:33;;;;;;;19.20;4.60;;;11.70;99.90;;;;;;5352566;26;20255;-85
2024/04/15 02:44:59;;;;;;;19.17;5.13;;;11.70;99.90;;;;;;5350830;26;20282;-85
2024/04/15 02:47:24;;;;;;;17.07;4.80;;;11.70;99.90;;;;;;5351003;26;20620;-85
2024/04/15 02:49:50;;;;;;;18.90;5.03;;;11.60;99.90;;;;;;5350681;26;20604;-85
2024/04/15 02:52:16;;;;;;;20.70;5.07;;;11.50;99.90;;;;;;5352078;26;20686;-85
2024/04/15 02:54:41;;;;;;;25.97;6.80;;;11.50;99.90;;;;;;5353364;26;20782;-85
2024/04/15 02:57:07;;;;;;;17.40;4.70;;;11.40;99.90;;;;;;5350419;26;20286;-85
2024/04/15 02:59:33;;;;;;;19.50;5.17;;;11.30;99.90;;;;;;5350617;26;20302;-85
2024/04/15 03:01:58;;;;;;;17.30;4.77;;;11.20;99.90;;;;;;5351904;26;20216;-85
2024/04/15 03:04:24;;;;;;;23.20;5.63;;;11.10;99.90;;;;;;5349759;26;20212;-85
2024/04/15 03:06:53;;;;;;;18.90;4.60;;;11.00;99.90;;;;;;5351984;26;20204;-85
2024/04/15 03:09:21;;;;;;;21.83;5.47;;;11.00;99.90;;;;;;5352995;26;20272;-85
2024/04/15 03:11:47;;;;;;;20.75;4.57;;;11.10;99.90;;;;;;5352570;26;20324;-85
2024/04/15 03:14:13;;;;;;;18.63;5.30;;;11.00;99.90;;;;;;5352802;26;20252;-85
2024/04/15 03:16:38;;;;;;;18.17;5.00;;;11.00;99.90;;;;;;5353775;26;20208;-85
2024/04/15 03:19:04;;;;;;;18.90;5.57;;;10.90;99.90;;;;;;5353005;26;20276;-86
2024/04/15 03:21:30;;;;;;;20.77;4.80;;;10.90;99.90;;;;;;5353235;26;20287;-85
2024/04/15 03:23:55;;;;;;;17.63;4.80;;;10.80;99.90;;;;;;5351648;26;20459;-85
2024/04/15 03:26:21;;;;;;;19.90;5.50;;;10.70;99.90;;;;;;5351867;26;20713;-85
2024/04/15 03:28:47;;;;;;;24.20;4.80;;;10.60;99.90;;;;;;5351844;26;20216;-85
2024/04/15 03:31:13;;;;;;;17.63;3.93;;;10.60;99.90;;;;;;5353083;26;20254;-85
2024/04/15 03:33:41;;;;;;;21.03;4.57;;;10.60;99.90;;;;;;5352906;26;20258;-85
2024/04/15 03:36:07;;;;;;;19.95;4.78;;;10.60;99.90;;;;;;5350581;26;20228;-85
2024/04/15 03:38:33;;;;;;;18.27;5.20;;;10.60;99.90;;;;;;5352633;26;20574;-86
2024/04/15 03:40:59;;;;;;;18.60;4.47;;;10.50;99.90;;;;;;5352267;26;20299;-86
2024/04/15 03:43:25;;;;;;;17.10;4.05;;;10.40;99.90;;;;;;5354898;26;21033;-86
2024/04/15 03:45:51;;;;;;;20.33;4.90;;;10.30;99.90;;;;;;5352811;26;20204;-86
2024/04/15 03:48:17;;;;;;;16.90;4.27;;;10.30;99.90;;;;;;5354697;26;21012;-86
2024/04/15 03:50:43;;;;;;;16.47;4.13;;;10.30;99.90;;;;;;5354189;26;20505;-86
2024/04/15 03:53:08;;;;;;;19.20;4.23;;;10.30;99.90;;;;;;5352555;26;20224;-86
2024/04/15 03:55:34;;;;;;;19.17;5.13;;;10.20;99.90;;;;;;5352778;26;20221;-86
2024/04/15 03:57:59;;;;;;;22.93;4.77;;;10.10;99.90;;;;;;5439777;21;20256;-82
2024/04/15 04:00:25;;;;;;;15.37;3.67;;;10.00;99.90;;;;;;5375982;26;20285;-81
2024/04/15 04:02:51;;;;;;;16.63;4.32;;;10.00;99.90;;;;;;5376125;26;20200;-82
2024/04/15 04:05:17;;;;;;;18.40;4.73;;;10.00;99.90;;;;;;5345789;26;20549;-82
2024/04/15 04:07:43;;;;;;;18.00;5.00;;;10.00;99.90;;;;;;5345129;26;20676;-82
2024/04/15 04:10:08;;;;;;;19.93;4.90;;;9.90;99.90;;;;;;5376443;26;20242;-83
2024/04/15 04:12:34;;;;;;;18.60;4.30;;;9.80;99.90;;;;;;5376211;26;20219;-83
2024/04/15 04:15:00;;;;;;;18.50;4.13;;;9.70;99.90;;;;;;5376634;26;20250;-82
2024/04/15 04:17:25;;;;;;;19.40;4.13;;;9.70;99.90;;;;;;5376046;26;20216;-82
2024/04/15 04:19:53;;;;;;;18.27;5.00;;;9.80;99.90;;;;;;5345336;26;20231;-81
2024/04/15 04:22:19;;;;;;;18.20;4.60;;;9.70;99.90;;;;;;5345715;26;20680;-82
2024/04/15 04:24:44;;;;;;;17.63;5.07;;;9.70;99.90;;;;;;5375839;26;20246;-82
2024/04/15 04:27:10;;;;;;;16.57;3.93;;;9.60;99.90;;;;;;5375794;26;20211;-82
2024/04/15 04:29:36;;;;;;;18.47;4.37;;;9.70;99.90;;;;;;5376047;26;20250;-82
2024/04/15 04:32:03;;;;;;;18.40;5.67;;;9.60;99.90;;;;;;5345221;26;20211;-83
2024/04/15 04:34:29;;;;;;;17.05;4.10;;;9.60;99.90;;;;;;5345589;26;20313;-82
2024/04/15 04:36:55;;;;;;;20.20;4.47;;;9.70;99.90;;;;;;5376574;26;20676;-82
2024/04/15 04:39:21;;;;;;;16.55;4.20;;;9.70;99.90;;;;;;5345508;26;20215;-83
2024/04/15 04:41:47;;;;;;;20.00;3.97;;;9.60;99.90;;;;;;5376428;26;20215;-82
2024/04/15 04:44:12;;;;;;;16.13;4.10;;;9.60;99.90;;;;;;5376426;26;20204;-83
2024/04/15 04:46:39;;;;;;;17.40;4.23;;;9.50;99.90;;;;;;5345596;26;20289;-83
2024/04/15 04:49:05;;;;;;;18.17;4.45;;;9.40;99.90;;;;;;5345527;26;20223;-83
2024/04/15 04:51:30;;;;;;;17.83;4.83;;;9.30;99.90;;;;;;5345155;26;20289;-83
2024/04/15 04:53:56;;;;;;;16.47;3.80;;;9.50;99.90;;;;;;5345313;26;20574;-83
2024/04/15 04:56:21;;;;;;;16.37;3.80;;;9.40;99.90;;;;;;5345362;26;20212;-83
2024/04/15 04:58:48;;;;;;;19.17;4.37;;;9.50;99.90;;;;;;5345139;26;20232;-83
2024/04/15 05:01:18;;;;;;;17.63;4.65;;;9.40;99.90;;;;;;5345306;26;20638;-82
2024/04/15 05:03:45;;;;;;;17.25;4.38;;;9.50;99.90;;;;;;5345057;26;20242;-83
2024/04/15 05:06:12;;;;;;;17.30;3.85;;;9.50;99.90;;;;;;5376025;26;20216;-83
2024/04/15 05:08:39;;;;;;;15.77;3.75;;;9.50;99.90;;;;;;5344962;26;20267;-82
2024/04/15 05:11:05;;;;;;;15.75;3.70;;;9.40;99.90;;;;;;5376376;26;20219;-83
2024/04/15 05:13:31;;;;;;;17.65;4.22;;;9.40;99.90;;;;;;5345421;26;20224;-83
2024/04/15 05:16:06;;;;;;;20.20;4.30;;;9.40;99.90;;;;;;5376646;26;20258;-83
2024/04/15 05:18:33;;;;;;;15.57;3.63;;;9.40;99.90;;;;;;5344926;26;20223;-83
2024/04/15 05:21:00;;;;;;;22.73;4.80;;;9.50;99.90;;;;;;5375849;26;20246;-82
2024/04/15 05:23:26;;;;;;;16.58;3.40;;;9.50;99.90;;;;;;5345266;26;20224;-83
2024/04/15 05:25:56;;;;;;;15.93;3.15;;;9.50;99.90;;;;;;5376289;26;20700;-83
2024/04/15 05:28:23;;;;;;;15.52;3.10;;;9.60;99.90;;;;;;5376008;26;20552;-83
2024/04/15 05:30:55;;;;;;;16.10;3.15;;;9.70;99.90;;;;;;5375951;26;20223;-83
2024/04/15 05:33:22;;;;;;;15.93;3.10;;;9.90;99.90;;;;;;5376992;26;20184;-83
2024/04/15 05:35:47;;;;;;;17.27;3.28;;;10.10;99.90;;;;;;5345973;26;20220;-83
2024/04/15 05:38:17;;;;;;;17.07;2.90;;;10.10;99.90;;;;;;5345793;26;20227;-83
2024/04/15 05:40:42;;;;;;;15.60;3.00;;;10.20;99.90;;;;;;5345695;26;20836;-83
2024/04/15 05:43:09;;;;;;;16.07;3.10;;;10.30;99.90;;;;;;5345371;26;20231;-83
2024/04/15 05:45:39;;;;;;;19.02;5.50;;;10.30;99.90;;;;;;5345586;26;20242;-83
2024/04/15 05:48:05;;;;;;;18.55;3.33;;;10.40;99.90;;;;;;5376895;26;20207;-83
2024/04/15 05:50:31;;;;;;;16.92;3.13;;;10.40;99.90;;;;;;5376545;26;20280;-83
2024/04/15 05:52:57;;;;;;;14.55;2.60;;;10.40;99.90;;;;;;5345413;26;20216;-84
2024/04/15 05:55:23;;;;;;;20.75;3.03;;;10.40;99.90;;;;;;5345395;26;20207;-83
2024/04/15 05:57:49;;;;;;;19.80;2.70;;;10.50;99.90;;;;;;5376014;26;20257;-83
2024/04/15 06:00:17;;;;;;;19.52;2.80;;;10.70;99.90;;;;;;5345495;26;21042;-83
2024/04/15 06:02:42;;;;;;;17.77;2.80;;;10.70;99.90;;;;;;5376649;26;20208;-83
2024/04/15 06:05:08;;;;;;;16.53;3.00;;;10.80;99.90;;;;;;5376793;26;20254;-83
2024/04/15 06:07:34;;;;;;;14.93;2.70;;;10.90;99.90;;;;;;5377005;26;20257;-84
2024/04/15 06:09:59;;;;;;;17.87;3.07;;;11.00;97.60;;;;;;5378537;26;20243;-84
2024/04/15 06:12:28;;;;;;;15.00;2.47;;;10.90;98.90;;;;;;5379555;26;21052;-84
2024/04/15 06:14:55;;;;;;;15.27;1.90;;;11.00;98.50;;;;;;5379569;26;20212;-84
2024/04/15 06:17:20;;;;;;;16.33;2.08;;;11.10;96.40;;;;;;5379765;26;20224;-82
2024/04/15 06:19:46;;;;;;;16.63;2.77;;;11.10;92.40;;;;;;5378752;26;20316;-83
2024/04/15 06:22:11;;;;;;;18.40;2.13;;;11.30;93.20;;;;;;5349640;26;20216;-83
2024/04/15 06:24:37;;;;;;;17.70;2.20;;;11.20;97.50;;;;;;5379640;26;20257;-83
2024/04/15 06:27:03;;;;;;;17.83;2.37;;;11.40;94.20;;;;;;5379459;26;20215;-84
2024/04/15 06:29:28;;;;;;;15.00;2.57;;;11.30;88.50;;;;;;5348415;26;20308;-84
2024/04/15 06:31:54;;;;;;;15.03;2.43;;;11.20;95.30;;;;;;5348791;26;20316;-83
2024/04/15 06:34:21;;;;;;;18.70;1.93;;;11.20;93.60;;;;;;5379765;26;20275;-83
2024/04/15 06:36:48;;;;;;;14.30;1.80;;;11.10;92.60;;;;;;5379517;26;20631;-84
2024/04/15 06:39:14;;;;;;;16.17;2.17;;;11.20;87.10;;;;;;5348522;26;20227;-84
2024/04/15 06:41:39;;;;;;;20.05;2.55;;;11.10;92.10;;;;;;5379311;26;20219;-84
2024/04/15 06:44:05;;;;;;;16.17;2.30;;;11.30;91.80;;;;;;5348276;26;20254;-84
2024/04/15 06:46:31;;;;;;;14.27;1.50;;;11.30;83.30;;;;;;5379576;26;20308;-84
2024/04/15 06:48:58;;;;;;;15.77;2.23;;;11.30;78.90;;;;;;5379198;26;20657;-84
2024/04/15 06:51:24;;;;;;;17.00;2.35;;;11.40;67.80;;;;;;5348047;26;20560;-84
2024/04/15 06:53:49;;;;;;;15.88;2.88;;;11.50;63.80;;;;;;5379123;26;20277;-84
2024/04/15 06:56:16;;;;;;;15.73;2.40;;;11.50;68.50;;;;;;5378752;26;20627;-84
2024/04/15 06:58:42;;;;;;;16.65;1.85;;;11.40;80.90;;;;;;5378609;26;20568;-84
2024/04/15 07:01:08;;;;;;;17.40;1.90;;;11.60;72.80;;;;;;5348588;26;20243;-84
2024/04/15 07:03:33;;;;;;;18.90;3.00;;;11.70;79.70;;;;;;5379347;26;20785;-84
2024/04/15 07:05:59;;;;;;;15.03;1.73;;;11.80;60.90;;;;;;5379110;26;20254;-84
2024/04/15 07:08:25;;;;;;;19.30;1.97;;;11.70;73.80;;;;;;5348313;26;20227;-84
2024/04/15 07:10:51;;;;;;;17.57;1.93;;;11.70;73.30;;;;;;5378846;26;20315;-84
2024/04/15 07:13:17;;;;;;;16.38;2.13;;;11.60;73.90;;;;;;5379024;26;20263;-84
2024/04/15 07:15:43;;;;;;;18.23;2.15;;;11.60;72.70;;;;;;5379262;26;20216;-85
2024/04/15 07:18:10;;;;;;;16.60;2.30;;;11.80;66.30;;;;;;5379247;26;20211;-84
2024/04/15 07:20:35;;;;;;;19.45;2.15;;;11.70;51.20;;;;;;5378880;26;20219;-85
2024/04/15 07:23:01;;;;;;;19.27;2.83;;;11.60;49.30;;;;;;5348251;26;20215;-84
2024/04/15 07:25:27;;;;;;;17.23;2.47;;;11.70;46.20;;;;;;5348245;26;20227;-84
2024/04/15 07:27:53;;;;;;;23.90;2.70;;;11.70;53.20;;;;;;5379516;26;20258;-84
2024/04/15 07:30:18;;;;;;;20.57;2.40;;;11.70;45.80;;;;;;5347925;26;20239;-84
2024/04/15 07:32:45;;;;;;;21.33;2.73;;;11.80;51.70;;;;;;5349211;26;20246;-85
2024/04/15 07:35:11;;;;;;;15.60;2.40;;;11.70;44.40;;;;;;5378942;26;20316;-84
2024/04/15 07:37:37;;;;;;;15.20;2.33;;;11.60;38.00;;;;;;5379690;26;20219;-84
2024/04/15 07:40:02;;;;;;;15.70;2.67;;;11.60;36.70;;;;;;5379973;26;20227;-84
2024/04/15 07:42:28;;;;;;;19.13;2.90;;;11.40;51.30;;;;;;5379390;26;20208;-84
2024/04/15 07:44:54;;;;;;;19.03;2.80;;;11.40;42.00;;;;;;5379726;26;20730;-84
2024/04/15 07:47:19;;;;;;;20.30;2.70;;;11.40;50.70;;;;;;5379813;26;20220;-84
2024/04/15 07:49:45;;;;;;;18.73;2.77;;;11.40;65.40;;;;;;5378577;26;20208;-84
2024/04/15 07:52:11;;;;;;;18.20;3.00;;;11.40;53.20;;;;;;5379057;26;20208;-84
2024/04/15 07:54:37;;;;;;;21.47;2.53;;;11.50;49.40;;;;;;5379540;26;20238;-84
2024/04/15 07:57:03;;;;;;;18.80;2.10;;;11.60;54.80;;;;;;5378959;26;20434;-83
2024/04/15 07:59:29;;;;;;;20.40;2.00;;;11.70;49.60;;;;;;5379104;26;20254;-84
2024/04/15 08:01:54;;;;;;;19.03;2.70;;;11.60;38.60;;;;;;5379713;26;20447;-85
2024/04/15 08:04:20;;;;;;;16.13;2.37;;;11.70;36.30;;;;;;5348532;26;20681;-84
2024/04/15 08:06:46;;;;;;;17.60;2.67;;;11.80;24.80;;;;;;5378796;26;20747;-84
2024/04/15 08:09:11;;;;;;;20.70;2.20;;;11.80;2.30;;;;;;5348948;26;20242;-85
2024/04/15 08:11:37;;;;;;;15.40;2.13;;;11.80;13.00;;;;;;5379305;26;20247;-84
2024/04/15 08:14:03;;;;;;;15.37;2.17;;;11.60;15.20;;;;;;5379831;26;20595;-84
2024/04/15 08:16:29;;;;;;;15.10;1.83;;;11.60;17.00;;;;;;5348896;26;20278;-84
2024/04/15 08:18:54;;;;;;;16.73;2.20;;;11.70;23.10;;;;;;5379305;26;20676;-84
2024/04/15 08:21:21;;;;;;;15.30;2.27;;;11.80;5.50;;;;;;5348928;26;20500;-84
2024/04/15 08:23:47;;;;;;;16.85;1.95;;;11.80;4.90;;;;;;5379578;26;20281;-84
2024/04/15 08:26:13;;;;;;;15.82;2.13;;;11.80;6.50;;;;;;5379063;26;20259;-85
2024/04/15 08:28:39;;;;;;;14.00;1.83;;;11.90;1.00;;;;;;5379553;26;20247;-85
2024/04/15 08:31:04;;;;;;;14.67;1.67;;;11.90;1.00;;;;;;5347771;26;20461;-85
2024/04/15 08:33:30;;;;;;;22.13;2.20;;;12.10;1.00;;;;;;5378832;26;20297;-84
2024/04/15 08:35:56;;;;;;;17.93;2.60;;;12.40;1.00;;;;;;5348909;26;20289;-85
2024/04/15 08:38:21;;;;;;;16.60;1.90;;;12.50;1.00;;;;;;5348423;26;20227;-85
2024/04/15 08:40:56;;;;;;;15.03;1.70;;;12.70;1.00;;;;;;5348425;26;20228;-84
2024/04/15 08:43:26;;;;;;;16.45;1.75;;;12.70;1.00;;;;;;5348317;26;20219;-85
2024/04/15 08:45:58;;;;;;;15.93;1.80;;;12.90;1.00;;;;;;5379341;26;20271;-85
2024/04/15 08:48:25;;;;;;;14.63;1.77;;;12.90;1.00;;;;;;5380090;26;20169;-85
2024/04/15 08:50:59;;;;;;;14.30;1.50;;;12.90;1.00;;;;;;5380161;26;20254;-85
2024/04/15 08:53:25;;;;;;;15.75;1.90;;;12.90;1.00;;;;;;5380220;26;20201;-85
2024/04/15 08:55:51;;;;;;;19.23;2.10;;;12.90;1.00;;;;;;5379376;26;20316;-86
2024/04/15 08:58:17;;;;;;;14.50;1.43;;;13.00;1.00;;;;;;5379682;26;20235;-86
2024/04/15 09:00:44;;;;;;;15.85;2.25;;;13.10;1.00;;;;;;5379506;26;20312;-85
2024/04/15 09:03:11;;;;;;;20.23;2.47;;;13.00;1.00;;;;;;5378968;26;20203;-85
2024/04/15 09:05:37;;;;;;;17.93;3.50;;;13.20;1.00;;;;;;5347088;26;20231;-84
2024/04/15 09:08:03;;;;;;;18.00;2.10;;;13.40;1.00;;;;;;5378971;26;20387;-85
2024/04/15 09:10:29;;;;;;;16.37;2.00;;;13.50;1.00;;;;;;5378687;26;20442;-85
2024/04/15 09:12:56;;;;;;;14.17;1.40;;;13.70;1.00;;;;;;5378810;26;20426;-84
2024/04/15 09:15:25;;;;;;;15.00;1.67;;;13.80;1.00;;;;;;5347611;26;20241;-85
2024/04/15 09:17:52;;;;;;;19.50;2.30;;;14.00;1.00;;;;;;5380051;26;20446;-84
2024/04/15 09:20:19;;;;;;;16.90;1.80;;;13.80;1.00;;;;;;5378588;26;20438;-84
2024/04/15 09:22:45;;;;;;;14.80;2.00;;;13.80;1.00;;;;;;5379393;26;20434;-84
2024/04/15 09:25:11;;;;;;;16.50;1.90;;;14.10;1.00;;;;;;5378824;26;20579;-85
2024/04/15 09:27:36;;;;;;;14.50;1.73;;;14.10;1.00;;;;;;5348557;26;20454;-84
2024/04/15 09:30:03;;;;;;;13.20;1.30;;;13.80;1.00;;;;;;5379686;26;20220;-84
2024/04/15 09:32:29;;;;;;;24.37;2.10;;;13.70;1.00;;;;;;5348600;26;20220;-84
2024/04/15 09:35:03;;;;;;;18.10;1.90;;;13.90;1.00;;;;;;5379201;26;20433;-85
2024/04/15 09:37:31;;;;;;;15.77;2.00;;;14.00;1.00;;;;;;5378711;26;20423;-84
2024/04/15 09:39:57;;;;;;;16.67;1.87;;;14.10;1.00;;;;;;5378877;26;20506;-85
2024/04/15 09:42:24;;;;;;;16.27;2.20;;;14.10;1.00;;;;;;5378503;26;20440;-84
2024/04/15 09:44:51;;;;;;;23.80;1.77;;;14.20;1.00;;;;;;5349087;26;20442;-85
2024/04/15 09:47:18;;;;;;;21.20;1.87;;;14.30;1.00;;;;;;5381754;26;20437;-85
2024/04/15 09:49:46;;;;;;;15.57;2.17;;;14.40;1.00;;;;;;5351553;26;20537;-85
2024/04/15 09:52:22;;;;;;;14.03;1.23;;;14.30;1.00;;;;;;5382725;26;20434;-85
2024/04/15 09:54:57;;;;;;;13.10;1.30;;;14.10;1.00;;;;;;5351866;26;20457;-85
2024/04/15 09:59:59;;;;;;;19.70;2.10;;;13.90;1.00;;;;;;5349078;26;20360;-85
2024/04/15 10:02:35;;;;;;;13.67;1.50;;;13.80;1.00;;;;;;5350276;26;20775;-85
2024/04/15 10:05:25;;;;;;;14.27;1.43;;;14.00;1.00;;;;;;5353727;26;20446;-85
2024/04/15 10:07:52;;;;;;;14.50;1.33;;;14.30;1.00;;;;;;5342438;26;20501;-85
2024/04/15 10:10:23;;;;;;;17.13;1.70;;;14.60;1.00;;;;;;5350326;26;20447;-85
2024/04/15 10:12:53;;;;;;;17.13;1.73;;;14.70;1.00;;;;;;5351318;26;20495;-84
2024/04/15 10:15:23;;;;;;;14.73;1.50;;;15.00;1.00;;;;;;5351921;26;20395;-85
2024/04/15 10:18:02;;;;;;;18.83;1.80;;;15.20;1.00;;;;;;5351985;26;20523;-84
2024/04/15 10:20:36;;;;;;;15.80;1.50;;;15.00;1.00;;;;;;5351309;26;20519;-85
2024/04/15 10:23:07;;;;;;;12.90;1.40;;;14.80;1.00;;;;;;5349618;26;20445;-85
2024/04/15 10:25:35;;;;;;;17.23;1.80;;;15.00;1.00;;;;;;5348489;26;20486;-85
2024/04/15 10:28:01;;;;;;;15.17;1.90;;;15.20;1.00;;;;;;5348680;26;20500;-85
2024/04/15 10:30:29;;;;;;;16.13;1.50;;;15.60;1.00;;;;;;5348679;26;20581;-85
2024/04/15 10:32:58;;;;;;;20.80;1.97;;;16.20;99.90;;;;;;5352806;26;20331;-85
2024/04/15 10:35:25;;;;;;;14.83;1.40;;;16.70;99.90;;;;;;5350660;26;20489;-85
2024/04/15 10:37:52;;;;;;;14.40;1.40;;;16.80;99.90;;;;;;5352480;26;20434;-85
2024/04/15 10:40:30;;;;;;;15.90;1.27;;;16.50;99.90;;;;;;5350472;26;20515;-84
2024/04/15 10:42:59;;;;;;;14.07;1.20;;;16.40;99.90;;;;;;5352076;26;20486;-85
2024/04/15 10:45:28;;;;;;;13.93;1.67;;;16.30;99.90;;;;;;5351855;26;20870;-84
2024/04/15 10:47:54;;;;;;;14.97;1.40;;;16.20;99.90;;;;;;5352412;26;20488;-84
2024/04/15 10:50:20;;;;;;;21.67;1.50;;;16.20;99.90;;;;;;5349615;26;20529;-85
2024/04/15 10:52:46;;;;;;;19.67;1.70;;;16.20;99.90;;;;;;5350772;26;20944;-85
2024/04/15 10:55:12;;;;;;;15.03;1.50;;;16.30;99.90;;;;;;5348583;26;20505;-85
2024/04/15 10:57:41;;;;;;;14.77;1.30;;;16.40;99.90;;;;;;5350341;26;20203;-86
2024/04/15 11:00:17;;;;;;;16.47;1.60;;;16.60;99.90;;;;;;5350601;26;20220;-86
2024/04/15 11:02:45;;;;;;;16.00;1.17;;;16.90;99.90;;;;;;5349629;26;20464;-85
2024/04/15 11:05:13;;;;;;;13.80;1.27;;;17.00;99.90;;;;;;5350098;26;20391;-85
2024/04/15 11:07:40;;;;;;;15.70;1.30;;;16.80;99.90;;;;;;5349895;26;21066;-85
2024/04/15 11:10:07;;;;;;;16.40;1.83;;;17.20;99.90;;;;;;5350230;26;20469;-84
2024/04/15 11:12:34;;;;;;;14.07;1.40;;;17.30;99.90;;;;;;5350020;26;20948;-85
2024/04/15 11:15:00;;;;;;;14.90;1.63;;;17.60;99.90;;;;;;5347920;26;20559;-85
2024/04/15 11:17:25;;;;;;;14.77;1.13;;;17.60;99.90;;;;;;5349326;26;20443;-85
2024/04/15 11:20:18;;;;;;;16.87;1.70;;;18.00;99.90;;;;;;5349588;26;21114;-85
2024/04/15 11:22:46;;;;;;;14.37;1.73;;;17.90;99.90;;;;;;5343208;26;20439;-85
2024/04/15 11:25:13;;;;;;;13.63;1.03;;;18.00;99.90;;;;;;5349428;26;20577;-85
2024/04/15 11:27:47;;;;;;;14.20;1.50;;;18.30;99.90;;;;;;5351736;26;20899;-85
2024/04/15 11:30:21;;;;;;;14.63;1.43;;;18.50;99.90;;;;;;5351206;26;20591;-85
2024/04/15 11:32:48;;;;;;;13.10;1.47;;;18.30;99.90;;;;;;5351424;26;20387;-85
2024/04/15 11:35:14;;;;;;;14.80;2.23;;;18.20;99.90;;;;;;5353960;26;20798;-85
2024/04/15 11:37:39;;;;;;;12.60;1.40;;;18.00;99.90;;;;;;5351742;26;20439;-85
2024/04/15 11:40:10;;;;;;;17.60;1.40;;;17.90;99.90;;;;;;5353831;26;20446;-86
2024/04/15 11:42:37;;;;;;;13.03;1.43;;;17.60;99.90;;;;;;5353073;26;20247;-86
2024/04/15 11:45:06;;;;;;;19.33;1.70;;;17.70;99.90;;;;;;5354139;26;20554;-85
2024/04/15 11:47:32;;;;;;;15.87;1.10;;;17.50;99.90;;;;;;5352202;26;20451;-85
2024/04/15 11:50:00;;;;;;;16.30;1.37;;;17.00;99.90;;;;;;5351796;26;20509;-85
2024/04/15 11:52:26;;;;;;;15.67;1.20;;;17.20;99.90;;;;;;5353394;26;20491;-86
2024/04/15 11:54:53;;;;;;;13.20;1.30;;;17.20;99.90;;;;;;5353502;26;20789;-86
2024/04/15 11:57:19;;;;;;;15.70;1.20;;;17.20;99.90;;;;;;5353602;26;20554;-85
2024/04/15 11:59:44;;;;;;;12.63;1.23;;;17.50;99.90;;;;;;5352951;26;20462;-85
2024/04/15 12:02:11;;;;;;;14.90;1.77;;;17.60;99.90;;;;;;5353427;26;20431;-86
2024/04/15 12:04:36;;;;;;;13.57;1.43;;;17.30;99.90;;;;;;5353544;26;20323;-85
2024/04/15 12:07:02;;;;;;;18.63;1.67;;;17.10;99.90;;;;;;5351806;26;20439;-85
2024/04/15 12:09:30;;;;;;;14.73;1.50;;;16.80;99.90;;;;;;5354115;26;20209;-85
2024/04/15 12:11:55;;;;;;;17.27;1.50;;;16.90;99.90;;;;;;5353551;26;20431;-85
2024/04/15 12:14:21;;;;;;;14.13;1.23;;;16.90;99.90;;;;;;5350875;26;20502;-86
2024/04/15 12:16:47;;;;;;;14.00;1.20;;;16.50;99.90;;;;;;5352563;26;20219;-85
2024/04/15 12:19:12;;;;;;;16.90;2.07;;;16.40;99.90;;;;;;5351746;26;20216;-85
2024/04/15 12:21:38;;;;;;;13.07;1.40;;;16.30;99.90;;;;;;5352605;26;20228;-85
2024/04/15 12:24:07;;;;;;;13.20;1.23;;;16.50;99.90;;;;;;5349706;26;20442;-85
2024/04/15 12:26:33;;;;;;;16.13;1.40;;;16.60;99.90;;;;;;5348043;26;20264;-85
2024/04/15 12:28:59;;;;;;;15.37;1.63;;;16.50;99.90;;;;;;5348930;26;20551;-86
2024/04/15 12:31:25;;;;;;;12.00;1.00;;;16.50;99.90;;;;;;5351132;26;20315;-86
2024/04/15 12:33:51;;;;;;;12.80;1.70;;;16.40;99.90;;;;;;5351207;26;20256;-85
2024/04/15 12:36:17;;;;;;;14.83;1.47;;;16.30;99.90;;;;;;5352766;26;20911;-86
2024/04/15 12:38:42;;;;;;;15.33;1.47;;;16.20;99.90;;;;;;5352392;26;20216;-85
2024/04/15 12:41:09;;;;;;;13.10;1.00;;;16.10;99.90;;;;;;5350498;26;20835;-85
2024/04/15 12:43:35;;;;;;;14.50;1.50;;;16.10;99.90;;;;;;5349850;26;20271;-85